sensor_id;sensor_type;location;lat;lon;timestamp;P1;durP1;ratioP1;P2;durP2;ratioP2
21299;SDS011;10809;49.476;11.016;2022-08-01T00:02:32;2.35;;;1.85;;
21299;SDS011;10809;49.476;11.016;2022-08-01T00:05:03;3.95;;;1.63;;
21299;SDS011;10809;49.476;11.016;2022-08-01T00:07:36;2.45;;;2.08;;
21299;SDS011;10809;49.476;11.016;2022-08-01T00:10:08;2.08;;;1.60;;
21299;SDS011;10809;49.476;11.016;2022-08-01T00:12:43;2.03;;;1.70;;
21299;SDS011;10809;49.476;11.016;2022-08-01T00:15:17;1.63;;;1.52;;
21299;SDS011;10809;49.476;11.016;2022-08-01T00:17:48;2.05;;;1.95;;
21299;SDS011;10809;49.476;11.016;2022-08-01T00:20:21;3.63;;;2.00;;
21299;SDS011;10809;49.476;11.016;2022-08-01T00:22:51;2.20;;;1.77;;
21299;SDS011;10809;49.476;11.016;2022-08-01T00:25:25;1.67;;;1.58;;
21299;SDS011;10809;49.476;11.016;2022-08-01T00:27:58;2.83;;;1.20;;
21299;SDS011;10809;49.476;11.016;2022-08-01T00:30:28;1.65;;;1.55;;
21299;SDS011;10809;49.476;11.016;2022-08-01T00:32:59;1.92;;;1.70;;
21299;SDS011;10809;49.476;11.016;2022-08-01T00:35:32;1.58;;;1.48;;
21299;SDS011;10809;49.476;11.016;2022-08-01T00:38:02;3.47;;;2.15;;
21299;SDS011;10809;49.476;11.016;2022-08-01T00:40:36;3.58;;;1.67;;
21299;SDS011;10809;49.476;11.016;2022-08-01T00:43:06;3.95;;;2.22;;
21299;SDS011;10809;49.476;11.016;2022-08-01T00:45:40;2.83;;;1.70;;
21299;SDS011;10809;49.476;11.016;2022-08-01T00:48:11;1.63;;;1.52;;
21299;SDS011;10809;49.476;11.016;2022-08-01T00:50:44;1.98;;;1.80;;
21299;SDS011;10809;49.476;11.016;2022-08-01T00:53:18;2.95;;;1.60;;
21299;SDS011;10809;49.476;11.016;2022-08-01T00:55:51;1.50;;;1.40;;
21299;SDS011;10809;49.476;11.016;2022-08-01T00:58:22;4.28;;;1.75;;
21299;SDS011;10809;49.476;11.016;2022-08-01T01:00:56;2.72;;;1.70;;
21299;SDS011;10809;49.476;11.016;2022-08-01T01:03:27;1.48;;;1.38;;
21299;SDS011;10809;49.476;11.016;2022-08-01T01:11:44;2.28;;;2.05;;
21299;SDS011;10809;49.476;11.016;2022-08-01T01:17:26;1.98;;;1.77;;
21299;SDS011;10809;49.476;11.016;2022-08-01T01:20:01;2.17;;;1.85;;
21299;SDS011;10809;49.476;11.016;2022-08-01T01:22:50;2.58;;;1.95;;
21299;SDS011;10809;49.476;11.016;2022-08-01T01:28:12;1.60;;;1.50;;
21299;SDS011;10809;49.476;11.016;2022-08-01T01:30:50;3.00;;;2.53;;
21299;SDS011;10809;49.476;11.016;2022-08-01T01:33:23;2.50;;;2.20;;
21299;SDS011;10809;49.476;11.016;2022-08-01T01:35:59;3.00;;;1.88;;
21299;SDS011;10809;49.476;11.016;2022-08-01T01:38:33;3.22;;;1.95;;
21299;SDS011;10809;49.476;11.016;2022-08-01T01:41:08;2.33;;;2.10;;
21299;SDS011;10809;49.476;11.016;2022-08-01T01:43:40;2.13;;;2.00;;
21299;SDS011;10809;49.476;11.016;2022-08-01T01:46:12;2.65;;;2.00;;
21299;SDS011;10809;49.476;11.016;2022-08-01T01:48:46;1.75;;;1.65;;
21299;SDS011;10809;49.476;11.016;2022-08-01T01:51:18;2.03;;;1.90;;
21299;SDS011;10809;49.476;11.016;2022-08-01T01:53:52;1.83;;;1.73;;
21299;SDS011;10809;49.476;11.016;2022-08-01T01:56:24;2.65;;;2.45;;
21299;SDS011;10809;49.476;11.016;2022-08-01T01:58:59;3.13;;;1.80;;
21299;SDS011;10809;49.476;11.016;2022-08-01T02:01:31;2.45;;;2.25;;
21299;SDS011;10809;49.476;11.016;2022-08-01T02:04:05;3.45;;;1.90;;
21299;SDS011;10809;49.476;11.016;2022-08-01T02:06:36;2.00;;;1.85;;
21299;SDS011;10809;49.476;11.016;2022-08-01T02:09:08;2.40;;;1.40;;
21299;SDS011;10809;49.476;11.016;2022-08-01T02:11:38;2.78;;;1.70;;
21299;SDS011;10809;49.476;11.016;2022-08-01T02:14:13;2.95;;;1.48;;
21299;SDS011;10809;49.476;11.016;2022-08-01T02:16:47;1.80;;;1.70;;
21299;SDS011;10809;49.476;11.016;2022-08-01T02:19:19;2.50;;;1.10;;
21299;SDS011;10809;49.476;11.016;2022-08-01T02:21:59;1.65;;;1.40;;
21299;SDS011;10809;49.476;11.016;2022-08-01T02:27:24;0.90;;;0.90;;
21299;SDS011;10809;49.476;11.016;2022-08-01T02:30:00;1.20;;;1.10;;
21299;SDS011;10809;49.476;11.016;2022-08-01T02:35:28;1.67;;;1.00;;
21299;SDS011;10809;49.476;11.016;2022-08-01T02:38:01;1.20;;;1.10;;
21299;SDS011;10809;49.476;11.016;2022-08-01T02:40:34;1.13;;;1.02;;
21299;SDS011;10809;49.476;11.016;2022-08-01T02:43:11;1.42;;;1.33;;
21299;SDS011;10809;49.476;11.016;2022-08-01T02:45:46;2.90;;;1.67;;
21299;SDS011;10809;49.476;11.016;2022-08-01T02:48:21;1.70;;;1.60;;
21299;SDS011;10809;49.476;11.016;2022-08-01T02:50:56;1.58;;;1.48;;
21299;SDS011;10809;49.476;11.016;2022-08-01T02:53:32;1.85;;;1.58;;
21299;SDS011;10809;49.476;11.016;2022-08-01T02:56:06;1.75;;;1.58;;
21299;SDS011;10809;49.476;11.016;2022-08-01T02:58:38;1.70;;;1.60;;
21299;SDS011;10809;49.476;11.016;2022-08-01T03:01:10;3.40;;;1.92;;
21299;SDS011;10809;49.476;11.016;2022-08-01T03:03:42;1.98;;;1.45;;
21299;SDS011;10809;49.476;11.016;2022-08-01T03:06:14;1.55;;;1.45;;
21299;SDS011;10809;49.476;11.016;2022-08-01T03:08:45;1.77;;;1.67;;
21299;SDS011;10809;49.476;11.016;2022-08-01T03:11:16;1.88;;;1.70;;
21299;SDS011;10809;49.476;11.016;2022-08-01T03:13:48;2.80;;;1.60;;
21299;SDS011;10809;49.476;11.016;2022-08-01T03:16:22;2.00;;;1.15;;
21299;SDS011;10809;49.476;11.016;2022-08-01T03:18:56;2.03;;;1.42;;
21299;SDS011;10809;49.476;11.016;2022-08-01T03:21:28;1.77;;;1.25;;
21299;SDS011;10809;49.476;11.016;2022-08-01T03:24:01;1.92;;;1.50;;
21299;SDS011;10809;49.476;11.016;2022-08-01T03:26:34;1.00;;;1.00;;
21299;SDS011;10809;49.476;11.016;2022-08-01T03:29:14;1.30;;;1.10;;
21299;SDS011;10809;49.476;11.016;2022-08-01T03:31:47;1.85;;;1.38;;
21299;SDS011;10809;49.476;11.016;2022-08-01T03:34:18;1.48;;;1.38;;
21299;SDS011;10809;49.476;11.016;2022-08-01T03:39:44;1.50;;;1.40;;
21299;SDS011;10809;49.476;11.016;2022-08-01T03:42:19;1.45;;;0.95;;
21299;SDS011;10809;49.476;11.016;2022-08-01T03:44:53;2.42;;;1.63;;
21299;SDS011;10809;49.476;11.016;2022-08-01T03:47:29;1.73;;;1.45;;
21299;SDS011;10809;49.476;11.016;2022-08-01T03:50:03;5.18;;;1.30;;
21299;SDS011;10809;49.476;11.016;2022-08-01T03:52:39;3.45;;;1.63;;
21299;SDS011;10809;49.476;11.016;2022-08-01T03:55:13;2.05;;;1.92;;
21299;SDS011;10809;49.476;11.016;2022-08-01T03:57:46;2.80;;;1.70;;
21299;SDS011;10809;49.476;11.016;2022-08-01T04:00:18;2.67;;;2.15;;
21299;SDS011;10809;49.476;11.016;2022-08-01T04:02:52;2.75;;;1.90;;
21299;SDS011;10809;49.476;11.016;2022-08-01T04:05:29;2.78;;;2.47;;
21299;SDS011;10809;49.476;11.016;2022-08-01T04:07:59;2.60;;;2.20;;
21299;SDS011;10809;49.476;11.016;2022-08-01T04:10:32;2.80;;;2.40;;
21299;SDS011;10809;49.476;11.016;2022-08-01T04:13:05;2.10;;;1.95;;
21299;SDS011;10809;49.476;11.016;2022-08-01T04:15:35;3.22;;;2.47;;
21299;SDS011;10809;49.476;11.016;2022-08-01T04:18:09;3.92;;;2.50;;
21299;SDS011;10809;49.476;11.016;2022-08-01T04:20:39;2.67;;;1.98;;
21299;SDS011;10809;49.476;11.016;2022-08-01T04:23:10;2.15;;;2.00;;
21299;SDS011;10809;49.476;11.016;2022-08-01T04:25:42;2.47;;;2.05;;
21299;SDS011;10809;49.476;11.016;2022-08-01T04:28:17;1.60;;;1.50;;
21299;SDS011;10809;49.476;11.016;2022-08-01T04:30:50;2.60;;;1.60;;
21299;SDS011;10809;49.476;11.016;2022-08-01T04:33:24;1.85;;;1.75;;
21299;SDS011;10809;49.476;11.016;2022-08-01T04:35:57;2.92;;;1.20;;
21299;SDS011;10809;49.476;11.016;2022-08-01T04:38:29;1.58;;;1.20;;
21299;SDS011;10809;49.476;11.016;2022-08-01T04:41:02;1.63;;;1.42;;
21299;SDS011;10809;49.476;11.016;2022-08-01T04:43:33;3.00;;;1.40;;
21299;SDS011;10809;49.476;11.016;2022-08-01T04:46:04;1.38;;;1.27;;
21299;SDS011;10809;49.476;11.016;2022-08-01T04:48:37;1.40;;;1.30;;
21299;SDS011;10809;49.476;11.016;2022-08-01T04:51:12;2.10;;;1.15;;
21299;SDS011;10809;49.476;11.016;2022-08-01T04:53:45;1.50;;;1.10;;
21299;SDS011;10809;49.476;11.016;2022-08-01T04:56:19;2.20;;;1.25;;
21299;SDS011;10809;49.476;11.016;2022-08-01T04:58:50;5.45;;;1.67;;
21299;SDS011;10809;49.476;11.016;2022-08-01T05:01:40;1.27;;;1.00;;
21299;SDS011;10809;49.476;11.016;2022-08-01T05:04:11;1.35;;;0.82;;
21299;SDS011;10809;49.476;11.016;2022-08-01T05:06:41;1.27;;;1.00;;
21299;SDS011;10809;49.476;11.016;2022-08-01T05:09:11;1.05;;;1.02;;
21299;SDS011;10809;49.476;11.016;2022-08-01T05:11:42;1.50;;;1.40;;
21299;SDS011;10809;49.476;11.016;2022-08-01T05:14:12;1.75;;;1.20;;
21299;SDS011;10809;49.476;11.016;2022-08-01T05:16:46;1.50;;;1.38;;
21299;SDS011;10809;49.476;11.016;2022-08-01T05:19:16;1.27;;;1.13;;
21299;SDS011;10809;49.476;11.016;2022-08-01T05:21:47;1.58;;;1.27;;
21299;SDS011;10809;49.476;11.016;2022-08-01T05:24:19;1.30;;;1.15;;
21299;SDS011;10809;49.476;11.016;2022-08-01T05:26:50;1.75;;;1.30;;
21299;SDS011;10809;49.476;11.016;2022-08-01T05:29:20;0.80;;;0.80;;
21299;SDS011;10809;49.476;11.016;2022-08-01T05:31:54;2.70;;;1.02;;
21299;SDS011;10809;49.476;11.016;2022-08-01T05:34:24;1.10;;;1.10;;
21299;SDS011;10809;49.476;11.016;2022-08-01T05:37:04;0.95;;;0.70;;
21299;SDS011;10809;49.476;11.016;2022-08-01T05:39:34;3.90;;;1.10;;
21299;SDS011;10809;49.476;11.016;2022-08-01T05:42:05;1.17;;;1.00;;
21299;SDS011;10809;49.476;11.016;2022-08-01T05:44:35;0.93;;;0.93;;
21299;SDS011;10809;49.476;11.016;2022-08-01T05:47:09;1.98;;;1.30;;
21299;SDS011;10809;49.476;11.016;2022-08-01T05:49:39;2.25;;;1.15;;
21299;SDS011;10809;49.476;11.016;2022-08-01T05:52:09;2.58;;;0.90;;
21299;SDS011;10809;49.476;11.016;2022-08-01T05:54:40;3.20;;;1.20;;
21299;SDS011;10809;49.476;11.016;2022-08-01T05:57:10;0.63;;;0.63;;
21299;SDS011;10809;49.476;11.016;2022-08-01T05:59:41;1.52;;;1.30;;
21299;SDS011;10809;49.476;11.016;2022-08-01T06:02:11;1.00;;;0.90;;
21299;SDS011;10809;49.476;11.016;2022-08-01T06:04:41;0.80;;;0.80;;
21299;SDS011;10809;49.476;11.016;2022-08-01T06:07:12;2.28;;;0.90;;
21299;SDS011;10809;49.476;11.016;2022-08-01T06:09:42;0.88;;;0.88;;
21299;SDS011;10809;49.476;11.016;2022-08-01T06:12:12;0.70;;;0.70;;
21299;SDS011;10809;49.476;11.016;2022-08-01T06:14:43;0.60;;;0.60;;
21299;SDS011;10809;49.476;11.016;2022-08-01T06:17:13;0.55;;;0.55;;
21299;SDS011;10809;49.476;11.016;2022-08-01T06:19:43;0.60;;;0.60;;
21299;SDS011;10809;49.476;11.016;2022-08-01T06:22:14;1.88;;;1.02;;
21299;SDS011;10809;49.476;11.016;2022-08-01T06:24:44;1.23;;;0.70;;
21299;SDS011;10809;49.476;11.016;2022-08-01T06:27:15;1.00;;;0.88;;
21299;SDS011;10809;49.476;11.016;2022-08-01T06:29:45;0.95;;;0.60;;
21299;SDS011;10809;49.476;11.016;2022-08-01T06:32:15;0.82;;;0.82;;
21299;SDS011;10809;49.476;11.016;2022-08-01T06:34:46;0.40;;;0.40;;
21299;SDS011;10809;49.476;11.016;2022-08-01T06:37:16;0.50;;;0.50;;
21299;SDS011;10809;49.476;11.016;2022-08-01T06:39:52;0.93;;;0.80;;
21299;SDS011;10809;49.476;11.016;2022-08-01T06:42:23;1.67;;;0.95;;
21299;SDS011;10809;49.476;11.016;2022-08-01T06:44:57;1.05;;;1.05;;
21299;SDS011;10809;49.476;11.016;2022-08-01T06:47:27;2.28;;;0.90;;
21299;SDS011;10809;49.476;11.016;2022-08-01T06:50:01;1.33;;;0.90;;
21299;SDS011;10809;49.476;11.016;2022-08-01T06:52:32;0.98;;;0.80;;
21299;SDS011;10809;49.476;11.016;2022-08-01T06:55:03;0.70;;;0.70;;
21299;SDS011;10809;49.476;11.016;2022-08-01T06:57:34;1.48;;;0.82;;
21299;SDS011;10809;49.476;11.016;2022-08-01T07:00:05;1.70;;;0.93;;
21299;SDS011;10809;49.476;11.016;2022-08-01T07:02:39;0.77;;;0.70;;
21299;SDS011;10809;49.476;11.016;2022-08-01T07:05:09;0.75;;;0.65;;
21299;SDS011;10809;49.476;11.016;2022-08-01T07:07:39;1.85;;;1.00;;
21299;SDS011;10809;49.476;11.016;2022-08-01T07:10:13;0.88;;;0.88;;
21299;SDS011;10809;49.476;11.016;2022-08-01T07:12:46;0.77;;;0.77;;
21299;SDS011;10809;49.476;11.016;2022-08-01T07:15:17;1.60;;;0.63;;
21299;SDS011;10809;49.476;11.016;2022-08-01T07:17:48;1.00;;;0.60;;
21299;SDS011;10809;49.476;11.016;2022-08-01T07:20:18;2.35;;;1.00;;
21299;SDS011;10809;49.476;11.016;2022-08-01T07:22:51;0.95;;;0.60;;
21299;SDS011;10809;49.476;11.016;2022-08-01T07:25:22;0.90;;;0.90;;
21299;SDS011;10809;49.476;11.016;2022-08-01T07:27:52;0.85;;;0.80;;
21299;SDS011;10809;49.476;11.016;2022-08-01T07:30:23;0.40;;;0.40;;
21299;SDS011;10809;49.476;11.016;2022-08-01T07:32:59;2.38;;;1.10;;
21299;SDS011;10809;49.476;11.016;2022-08-01T07:35:33;0.80;;;0.80;;
21299;SDS011;10809;49.476;11.016;2022-08-01T07:38:04;1.88;;;0.70;;
21299;SDS011;10809;49.476;11.016;2022-08-01T07:40:35;0.57;;;0.57;;
21299;SDS011;10809;49.476;11.016;2022-08-01T07:43:05;0.77;;;0.68;;
21299;SDS011;10809;49.476;11.016;2022-08-01T07:45:36;0.57;;;0.57;;
21299;SDS011;10809;49.476;11.016;2022-08-01T07:48:06;3.70;;;0.73;;
21299;SDS011;10809;49.476;11.016;2022-08-01T07:50:40;0.95;;;0.60;;
21299;SDS011;10809;49.476;11.016;2022-08-01T07:53:10;3.90;;;1.05;;
21299;SDS011;10809;49.476;11.016;2022-08-01T07:55:44;1.17;;;0.60;;
21299;SDS011;10809;49.476;11.016;2022-08-01T07:58:15;0.63;;;0.60;;
21299;SDS011;10809;49.476;11.016;2022-08-01T08:00:46;1.98;;;0.98;;
21299;SDS011;10809;49.476;11.016;2022-08-01T08:03:16;0.80;;;0.73;;
21299;SDS011;10809;49.476;11.016;2022-08-01T08:05:47;2.60;;;0.85;;
21299;SDS011;10809;49.476;11.016;2022-08-01T08:08:17;1.20;;;0.50;;
21299;SDS011;10809;49.476;11.016;2022-08-01T08:10:48;0.50;;;0.50;;
21299;SDS011;10809;49.476;11.016;2022-08-01T08:13:18;0.75;;;0.43;;
21299;SDS011;10809;49.476;11.016;2022-08-01T08:15:48;0.90;;;0.75;;
21299;SDS011;10809;49.476;11.016;2022-08-01T08:18:19;0.45;;;0.45;;
21299;SDS011;10809;49.476;11.016;2022-08-01T08:20:58;1.27;;;0.77;;
21299;SDS011;10809;49.476;11.016;2022-08-01T08:23:29;2.33;;;0.75;;
21299;SDS011;10809;49.476;11.016;2022-08-01T08:26:18;0.90;;;0.60;;
21299;SDS011;10809;49.476;11.016;2022-08-01T08:28:48;1.67;;;0.70;;
21299;SDS011;10809;49.476;11.016;2022-08-01T08:31:21;0.57;;;0.50;;
21299;SDS011;10809;49.476;11.016;2022-08-01T08:33:52;1.05;;;0.50;;
21299;SDS011;10809;49.476;11.016;2022-08-01T08:36:28;0.40;;;0.40;;
21299;SDS011;10809;49.476;11.016;2022-08-01T08:39:05;1.77;;;0.80;;
21299;SDS011;10809;49.476;11.016;2022-08-01T08:41:38;0.55;;;0.55;;
21299;SDS011;10809;49.476;11.016;2022-08-01T08:44:16;2.55;;;0.50;;
21299;SDS011;10809;49.476;11.016;2022-08-01T08:46:51;1.25;;;0.85;;
21299;SDS011;10809;49.476;11.016;2022-08-01T08:49:23;2.05;;;0.50;;
21299;SDS011;10809;49.476;11.016;2022-08-01T08:51:59;1.17;;;0.50;;
21299;SDS011;10809;49.476;11.016;2022-08-01T08:54:30;0.50;;;0.40;;
21299;SDS011;10809;49.476;11.016;2022-08-01T08:57:02;2.60;;;0.68;;
21299;SDS011;10809;49.476;11.016;2022-08-01T08:59:33;0.80;;;0.80;;
21299;SDS011;10809;49.476;11.016;2022-08-01T09:02:04;0.63;;;0.63;;
21299;SDS011;10809;49.476;11.016;2022-08-01T09:04:35;1.30;;;0.68;;
21299;SDS011;10809;49.476;11.016;2022-08-01T09:07:07;0.60;;;0.60;;
21299;SDS011;10809;49.476;11.016;2022-08-01T09:09:44;1.77;;;0.50;;
21299;SDS011;10809;49.476;11.016;2022-08-01T09:12:18;0.90;;;0.50;;
21299;SDS011;10809;49.476;11.016;2022-08-01T09:14:50;1.15;;;0.70;;
21299;SDS011;10809;49.476;11.016;2022-08-01T09:17:26;0.80;;;0.50;;
21299;SDS011;10809;49.476;11.016;2022-08-01T09:19:56;0.40;;;0.40;;
21299;SDS011;10809;49.476;11.016;2022-08-01T09:22:26;0.60;;;0.60;;
21299;SDS011;10809;49.476;11.016;2022-08-01T09:25:05;0.30;;;0.30;;
21299;SDS011;10809;49.476;11.016;2022-08-01T09:27:47;1.13;;;0.50;;
21299;SDS011;10809;49.476;11.016;2022-08-01T09:30:18;0.65;;;0.52;;
21299;SDS011;10809;49.476;11.016;2022-08-01T09:32:59;1.75;;;0.52;;
21299;SDS011;10809;49.476;11.016;2022-08-01T09:35:36;0.55;;;0.50;;
21299;SDS011;10809;49.476;11.016;2022-08-01T09:38:20;0.85;;;0.60;;
21299;SDS011;10809;49.476;11.016;2022-08-01T09:40:53;0.70;;;0.30;;
21299;SDS011;10809;49.476;11.016;2022-08-01T09:43:26;2.15;;;0.45;;
21299;SDS011;10809;49.476;11.016;2022-08-01T09:45:58;0.77;;;0.60;;
21299;SDS011;10809;49.476;11.016;2022-08-01T09:48:30;0.85;;;0.57;;
21299;SDS011;10809;49.476;11.016;2022-08-01T09:51:02;1.58;;;0.60;;
21299;SDS011;10809;49.476;11.016;2022-08-01T09:53:43;0.60;;;0.40;;
21299;SDS011;10809;49.476;11.016;2022-08-01T09:56:15;0.65;;;0.40;;
21299;SDS011;10809;49.476;11.016;2022-08-01T09:58:53;1.98;;;0.50;;
21299;SDS011;10809;49.476;11.016;2022-08-01T10:01:26;0.52;;;0.40;;
21299;SDS011;10809;49.476;11.016;2022-08-01T10:04:05;2.97;;;0.60;;
21299;SDS011;10809;49.476;11.016;2022-08-01T10:06:46;0.80;;;0.47;;
21299;SDS011;10809;49.476;11.016;2022-08-01T10:09:28;0.20;;;0.20;;
21299;SDS011;10809;49.476;11.016;2022-08-01T10:12:01;0.35;;;0.30;;
21299;SDS011;10809;49.476;11.016;2022-08-01T10:14:34;0.45;;;0.30;;
21299;SDS011;10809;49.476;11.016;2022-08-01T10:17:07;0.20;;;0.20;;
21299;SDS011;10809;49.476;11.016;2022-08-01T10:19:42;0.30;;;0.30;;
21299;SDS011;10809;49.476;11.016;2022-08-01T10:22:14;0.47;;;0.43;;
21299;SDS011;10809;49.476;11.016;2022-08-01T10:24:48;0.88;;;0.38;;
21299;SDS011;10809;49.476;11.016;2022-08-01T10:27:29;0.50;;;0.50;;
21299;SDS011;10809;49.476;11.016;2022-08-01T10:30:09;0.50;;;0.50;;
21299;SDS011;10809;49.476;11.016;2022-08-01T10:32:50;1.27;;;0.52;;
21299;SDS011;10809;49.476;11.016;2022-08-01T10:35:22;1.17;;;0.40;;
21299;SDS011;10809;49.476;11.016;2022-08-01T10:37:52;1.85;;;0.60;;
21299;SDS011;10809;49.476;11.016;2022-08-01T10:40:31;0.40;;;0.40;;
21299;SDS011;10809;49.476;11.016;2022-08-01T10:43:02;0.93;;;0.30;;
21299;SDS011;10809;49.476;11.016;2022-08-01T10:45:32;0.30;;;0.30;;
21299;SDS011;10809;49.476;11.016;2022-08-01T10:48:20;2.75;;;0.50;;
21299;SDS011;10809;49.476;11.016;2022-08-01T10:51:02;0.50;;;0.45;;
21299;SDS011;10809;49.476;11.016;2022-08-01T10:53:35;0.60;;;0.60;;
21299;SDS011;10809;49.476;11.016;2022-08-01T10:56:06;2.00;;;0.50;;
21299;SDS011;10809;49.476;11.016;2022-08-01T10:58:43;0.40;;;0.40;;
21299;SDS011;10809;49.476;11.016;2022-08-01T11:01:17;0.40;;;0.40;;
21299;SDS011;10809;49.476;11.016;2022-08-01T11:04:09;0.73;;;0.30;;
21299;SDS011;10809;49.476;11.016;2022-08-01T11:06:52;0.60;;;0.47;;
21299;SDS011;10809;49.476;11.016;2022-08-01T11:09:39;0.63;;;0.38;;
21299;SDS011;10809;49.476;11.016;2022-08-01T11:12:16;0.88;;;0.55;;
21299;SDS011;10809;49.476;11.016;2022-08-01T11:20:10;0.30;;;0.30;;
21299;SDS011;10809;49.476;11.016;2022-08-01T11:30:55;0.43;;;0.40;;
21299;SDS011;10809;49.476;11.016;2022-08-01T11:33:47;0.90;;;0.50;;
21299;SDS011;10809;49.476;11.016;2022-08-01T11:36:18;0.43;;;0.43;;
21299;SDS011;10809;49.476;11.016;2022-08-01T11:41:41;0.75;;;0.35;;
21299;SDS011;10809;49.476;11.016;2022-08-01T11:44:19;3.75;;;0.43;;
21299;SDS011;10809;49.476;11.016;2022-08-01T11:47:00;3.03;;;0.50;;
21299;SDS011;10809;49.476;11.016;2022-08-01T11:52:13;1.13;;;0.30;;
21299;SDS011;10809;49.476;11.016;2022-08-01T11:54:55;0.30;;;0.30;;
21299;SDS011;10809;49.476;11.016;2022-08-01T11:57:28;0.47;;;0.43;;
21299;SDS011;10809;49.476;11.016;2022-08-01T12:00:03;0.50;;;0.30;;
21299;SDS011;10809;49.476;11.016;2022-08-01T12:02:56;0.22;;;0.22;;
21299;SDS011;10809;49.476;11.016;2022-08-01T12:05:36;0.35;;;0.35;;
21299;SDS011;10809;49.476;11.016;2022-08-01T12:08:07;4.75;;;0.47;;
21299;SDS011;10809;49.476;11.016;2022-08-01T12:10:37;0.30;;;0.30;;
21299;SDS011;10809;49.476;11.016;2022-08-01T12:13:07;0.43;;;0.35;;
21299;SDS011;10809;49.476;11.016;2022-08-01T12:15:41;0.85;;;0.55;;
21299;SDS011;10809;49.476;11.016;2022-08-01T12:18:14;0.45;;;0.43;;
21299;SDS011;10809;49.476;11.016;2022-08-01T12:20:46;0.40;;;0.40;;
21299;SDS011;10809;49.476;11.016;2022-08-01T12:23:16;0.75;;;0.68;;
21299;SDS011;10809;49.476;11.016;2022-08-01T12:25:50;0.82;;;0.52;;
21299;SDS011;10809;49.476;11.016;2022-08-01T12:28:22;1.15;;;0.45;;
21299;SDS011;10809;49.476;11.016;2022-08-01T12:30:55;0.55;;;0.55;;
21299;SDS011;10809;49.476;11.016;2022-08-01T12:33:26;0.52;;;0.52;;
21299;SDS011;10809;49.476;11.016;2022-08-01T12:35:56;5.00;;;0.60;;
21299;SDS011;10809;49.476;11.016;2022-08-01T12:38:27;0.35;;;0.30;;
21299;SDS011;10809;49.476;11.016;2022-08-01T12:41:00;0.95;;;0.30;;
21299;SDS011;10809;49.476;11.016;2022-08-01T12:43:30;4.82;;;0.50;;
21299;SDS011;10809;49.476;11.016;2022-08-01T12:46:01;0.15;;;0.15;;
21299;SDS011;10809;49.476;11.016;2022-08-01T12:48:32;0.63;;;0.40;;
21299;SDS011;10809;49.476;11.016;2022-08-01T12:51:03;0.70;;;0.63;;
21299;SDS011;10809;49.476;11.016;2022-08-01T12:53:34;0.40;;;0.40;;
21299;SDS011;10809;49.476;11.016;2022-08-01T12:56:08;0.30;;;0.30;;
21299;SDS011;10809;49.476;11.016;2022-08-01T12:58:40;0.93;;;0.50;;
21299;SDS011;10809;49.476;11.016;2022-08-01T13:01:11;0.22;;;0.20;;
21299;SDS011;10809;49.476;11.016;2022-08-01T13:03:56;1.13;;;0.35;;
21299;SDS011;10809;49.476;11.016;2022-08-01T13:06:33;0.38;;;0.38;;
21299;SDS011;10809;49.476;11.016;2022-08-01T13:09:06;0.90;;;0.50;;
21299;SDS011;10809;49.476;11.016;2022-08-01T13:11:40;1.75;;;0.50;;
21299;SDS011;10809;49.476;11.016;2022-08-01T13:14:21;0.60;;;0.60;;
21299;SDS011;10809;49.476;11.016;2022-08-01T13:16:57;0.50;;;0.47;;
21299;SDS011;10809;49.476;11.016;2022-08-01T13:19:45;0.30;;;0.30;;
21299;SDS011;10809;49.476;11.016;2022-08-01T13:22:17;1.27;;;0.50;;
21299;SDS011;10809;49.476;11.016;2022-08-01T13:24:47;0.40;;;0.40;;
21299;SDS011;10809;49.476;11.016;2022-08-01T13:27:20;2.95;;;0.85;;
21299;SDS011;10809;49.476;11.016;2022-08-01T13:29:53;4.70;;;0.63;;
21299;SDS011;10809;49.476;11.016;2022-08-01T13:32:24;1.05;;;0.70;;
21299;SDS011;10809;49.476;11.016;2022-08-01T13:35:04;0.80;;;0.80;;
21299;SDS011;10809;49.476;11.016;2022-08-01T13:37:36;0.77;;;0.52;;
21299;SDS011;10809;49.476;11.016;2022-08-01T13:40:07;0.45;;;0.45;;
21299;SDS011;10809;49.476;11.016;2022-08-01T13:42:39;3.83;;;0.52;;
21299;SDS011;10809;49.476;11.016;2022-08-01T13:45:12;0.50;;;0.38;;
21299;SDS011;10809;49.476;11.016;2022-08-01T13:47:43;3.42;;;0.60;;
21299;SDS011;10809;49.476;11.016;2022-08-01T13:50:13;0.50;;;0.50;;
21299;SDS011;10809;49.476;11.016;2022-08-01T13:52:44;0.47;;;0.47;;
21299;SDS011;10809;49.476;11.016;2022-08-01T13:55:15;0.30;;;0.30;;
21299;SDS011;10809;49.476;11.016;2022-08-01T13:57:48;0.57;;;0.40;;
21299;SDS011;10809;49.476;11.016;2022-08-01T14:00:20;0.35;;;0.35;;
21299;SDS011;10809;49.476;11.016;2022-08-01T14:02:53;1.02;;;0.50;;
21299;SDS011;10809;49.476;11.016;2022-08-01T14:05:23;0.98;;;0.43;;
21299;SDS011;10809;49.476;11.016;2022-08-01T14:07:54;0.30;;;0.30;;
21299;SDS011;10809;49.476;11.016;2022-08-01T14:10:24;3.00;;;0.40;;
21299;SDS011;10809;49.476;11.016;2022-08-01T14:12:58;0.30;;;0.30;;
21299;SDS011;10809;49.476;11.016;2022-08-01T14:15:30;1.20;;;0.47;;
21299;SDS011;10809;49.476;11.016;2022-08-01T14:18:10;0.30;;;0.30;;
21299;SDS011;10809;49.476;11.016;2022-08-01T14:20:41;0.40;;;0.30;;
21299;SDS011;10809;49.476;11.016;2022-08-01T14:23:14;3.05;;;0.50;;
21299;SDS011;10809;49.476;11.016;2022-08-01T14:25:45;5.57;;;0.30;;
21299;SDS011;10809;49.476;11.016;2022-08-01T14:28:15;0.77;;;0.77;;
21299;SDS011;10809;49.476;11.016;2022-08-01T14:30:46;0.28;;;0.28;;
21299;SDS011;10809;49.476;11.016;2022-08-01T14:33:16;0.43;;;0.30;;
21299;SDS011;10809;49.476;11.016;2022-08-01T14:35:47;0.82;;;0.30;;
21299;SDS011;10809;49.476;11.016;2022-08-01T14:38:17;0.50;;;0.20;;
21299;SDS011;10809;49.476;11.016;2022-08-01T14:40:48;0.32;;;0.32;;
21299;SDS011;10809;49.476;11.016;2022-08-01T14:43:21;0.55;;;0.20;;
21299;SDS011;10809;49.476;11.016;2022-08-01T14:45:51;0.82;;;0.43;;
21299;SDS011;10809;49.476;11.016;2022-08-01T14:48:24;0.60;;;0.43;;
21299;SDS011;10809;49.476;11.016;2022-08-01T14:50:55;0.98;;;0.40;;
21299;SDS011;10809;49.476;11.016;2022-08-01T14:53:31;0.35;;;0.35;;
21299;SDS011;10809;49.476;11.016;2022-08-01T14:56:06;0.20;;;0.17;;
21299;SDS011;10809;49.476;11.016;2022-08-01T14:58:36;0.75;;;0.22;;
21299;SDS011;10809;49.476;11.016;2022-08-01T15:01:07;0.30;;;0.30;;
21299;SDS011;10809;49.476;11.016;2022-08-01T15:03:43;0.20;;;0.20;;
21299;SDS011;10809;49.476;11.016;2022-08-01T15:06:14;0.30;;;0.30;;
21299;SDS011;10809;49.476;11.016;2022-08-01T15:08:44;0.28;;;0.28;;
21299;SDS011;10809;49.476;11.016;2022-08-01T15:11:14;0.88;;;0.30;;
21299;SDS011;10809;49.476;11.016;2022-08-01T15:13:45;0.10;;;0.10;;
21299;SDS011;10809;49.476;11.016;2022-08-01T15:16:15;0.20;;;0.20;;
21299;SDS011;10809;49.476;11.016;2022-08-01T15:18:45;1.02;;;0.30;;
21299;SDS011;10809;49.476;11.016;2022-08-01T15:21:16;0.20;;;0.20;;
21299;SDS011;10809;49.476;11.016;2022-08-01T15:23:46;0.43;;;0.40;;
21299;SDS011;10809;49.476;11.016;2022-08-01T15:26:17;0.93;;;0.20;;
21299;SDS011;10809;49.476;11.016;2022-08-01T15:28:50;1.02;;;0.38;;
21299;SDS011;10809;49.476;11.016;2022-08-01T15:31:20;0.20;;;0.20;;
21299;SDS011;10809;49.476;11.016;2022-08-01T15:33:51;0.40;;;0.40;;
21299;SDS011;10809;49.476;11.016;2022-08-01T15:36:21;0.47;;;0.40;;
21299;SDS011;10809;49.476;11.016;2022-08-01T15:38:52;0.20;;;0.20;;
21299;SDS011;10809;49.476;11.016;2022-08-01T15:41:22;0.20;;;0.20;;
21299;SDS011;10809;49.476;11.016;2022-08-01T15:43:53;0.15;;;0.15;;
21299;SDS011;10809;49.476;11.016;2022-08-01T15:46:23;0.20;;;0.20;;
21299;SDS011;10809;49.476;11.016;2022-08-01T15:48:54;1.85;;;0.30;;